sensor_id;sensor_type;location;lat;lon;timestamp;P1;durP1;ratioP1;P2;durP2;ratioP2
4837;SDS011;2433;48.768;9.154;2023-02-24T00:01:47;25.37;;;13.67;;
4837;SDS011;2433;48.768;9.154;2023-02-24T00:04:24;27.57;;;16.47;;
4837;SDS011;2433;48.768;9.154;2023-02-24T00:06:50;30.20;;;14.87;;
4837;SDS011;2433;48.768;9.154;2023-02-24T00:09:17;26.23;;;15.03;;
4837;SDS011;2433;48.768;9.154;2023-02-24T00:11:45;27.10;;;16.10;;
4837;SDS011;2433;48.768;9.154;2023-02-24T00:14:17;24.27;;;14.37;;
4837;SDS011;2433;48.768;9.154;2023-02-24T00:16:44;26.50;;;15.80;;
4837;SDS011;2433;48.768;9.154;2023-02-24T00:19:14;28.93;;;16.43;;
4837;SDS011;2433;48.768;9.154;2023-02-24T00:21:42;26.83;;;15.73;;
4837;SDS011;2433;48.768;9.154;2023-02-24T00:24:08;27.73;;;17.30;;
4837;SDS011;2433;48.768;9.154;2023-02-24T00:26:34;22.63;;;16.07;;
4837;SDS011;2433;48.768;9.154;2023-02-24T00:29:02;24.20;;;15.00;;
4837;SDS011;2433;48.768;9.154;2023-02-24T00:31:30;23.80;;;15.30;;
4837;SDS011;2433;48.768;9.154;2023-02-24T00:33:59;28.23;;;17.30;;
4837;SDS011;2433;48.768;9.154;2023-02-24T00:36:27;27.37;;;16.70;;
4837;SDS011;2433;48.768;9.154;2023-02-24T00:38:57;29.43;;;16.53;;
4837;SDS011;2433;48.768;9.154;2023-02-24T00:41:29;30.60;;;17.23;;
4837;SDS011;2433;48.768;9.154;2023-02-24T00:43:56;28.70;;;15.37;;
4837;SDS011;2433;48.768;9.154;2023-02-24T00:46:34;28.70;;;16.57;;
4837;SDS011;2433;48.768;9.154;2023-02-24T00:49:02;25.17;;;16.20;;
4837;SDS011;2433;48.768;9.154;2023-02-24T00:51:30;28.50;;;17.63;;
4837;SDS011;2433;48.768;9.154;2023-02-24T00:54:00;28.63;;;17.33;;
4837;SDS011;2433;48.768;9.154;2023-02-24T00:56:27;28.60;;;17.77;;
4837;SDS011;2433;48.768;9.154;2023-02-24T00:58:54;22.50;;;15.47;;
4837;SDS011;2433;48.768;9.154;2023-02-24T01:01:21;26.83;;;16.30;;
4837;SDS011;2433;48.768;9.154;2023-02-24T01:03:49;27.37;;;17.90;;
4837;SDS011;2433;48.768;9.154;2023-02-24T01:06:18;27.73;;;20.63;;
4837;SDS011;2433;48.768;9.154;2023-02-24T01:08:45;30.47;;;17.70;;
4837;SDS011;2433;48.768;9.154;2023-02-24T01:11:31;27.10;;;16.87;;
4837;SDS011;2433;48.768;9.154;2023-02-24T01:14:18;31.27;;;18.07;;
4837;SDS011;2433;48.768;9.154;2023-02-24T01:16:47;31.20;;;19.00;;
4837;SDS011;2433;48.768;9.154;2023-02-24T01:19:19;26.97;;;17.40;;
4837;SDS011;2433;48.768;9.154;2023-02-24T01:21:46;28.87;;;17.17;;
4837;SDS011;2433;48.768;9.154;2023-02-24T01:24:12;28.07;;;17.80;;
4837;SDS011;2433;48.768;9.154;2023-02-24T01:26:40;28.23;;;17.43;;
4837;SDS011;2433;48.768;9.154;2023-02-24T01:29:06;29.07;;;14.60;;
4837;SDS011;2433;48.768;9.154;2023-02-24T01:31:38;29.70;;;18.80;;
4837;SDS011;2433;48.768;9.154;2023-02-24T01:34:10;30.00;;;18.50;;
4837;SDS011;2433;48.768;9.154;2023-02-24T01:36:38;32.47;;;18.50;;
4837;SDS011;2433;48.768;9.154;2023-02-24T01:39:07;25.97;;;16.97;;
4837;SDS011;2433;48.768;9.154;2023-02-24T01:41:36;22.83;;;17.30;;
4837;SDS011;2433;48.768;9.154;2023-02-24T01:46:47;25.87;;;17.93;;
4837;SDS011;2433;48.768;9.154;2023-02-24T01:49:16;25.70;;;16.07;;
4837;SDS011;2433;48.768;9.154;2023-02-24T01:51:46;23.97;;;16.07;;
4837;SDS011;2433;48.768;9.154;2023-02-24T01:54:15;22.20;;;15.03;;
4837;SDS011;2433;48.768;9.154;2023-02-24T01:56:43;24.53;;;16.73;;
4837;SDS011;2433;48.768;9.154;2023-02-24T01:59:11;21.60;;;15.47;;
4837;SDS011;2433;48.768;9.154;2023-02-24T02:01:40;25.70;;;16.70;;
4837;SDS011;2433;48.768;9.154;2023-02-24T02:04:28;25.10;;;17.70;;
4837;SDS011;2433;48.768;9.154;2023-02-24T02:06:58;25.43;;;15.47;;
4837;SDS011;2433;48.768;9.154;2023-02-24T02:09:27;28.33;;;17.47;;
4837;SDS011;2433;48.768;9.154;2023-02-24T02:11:55;28.00;;;16.27;;
4837;SDS011;2433;48.768;9.154;2023-02-24T02:14:22;25.93;;;15.50;;
4837;SDS011;2433;48.768;9.154;2023-02-24T02:16:53;23.47;;;15.77;;
4837;SDS011;2433;48.768;9.154;2023-02-24T02:24:46;23.53;;;15.63;;
4837;SDS011;2433;48.768;9.154;2023-02-24T02:36:02;22.80;;;15.27;;
4837;SDS011;2433;48.768;9.154;2023-02-24T02:39:00;26.30;;;18.50;;
4837;SDS011;2433;48.768;9.154;2023-02-24T02:41:33;25.03;;;15.57;;
4837;SDS011;2433;48.768;9.154;2023-02-24T02:44:06;28.43;;;16.77;;
4837;SDS011;2433;48.768;9.154;2023-02-24T02:46:35;26.70;;;16.80;;
4837;SDS011;2433;48.768;9.154;2023-02-24T02:51:52;31.60;;;18.10;;
4837;SDS011;2433;48.768;9.154;2023-02-24T02:56:55;25.77;;;19.07;;
4837;SDS011;2433;48.768;9.154;2023-02-24T02:59:34;28.77;;;17.67;;
4837;SDS011;2433;48.768;9.154;2023-02-24T03:02:01;28.07;;;16.83;;
4837;SDS011;2433;48.768;9.154;2023-02-24T03:04:40;23.37;;;16.63;;
4837;SDS011;2433;48.768;9.154;2023-02-24T03:07:08;22.70;;;15.97;;
4837;SDS011;2433;48.768;9.154;2023-02-24T03:09:36;25.93;;;15.70;;
4837;SDS011;2433;48.768;9.154;2023-02-24T03:12:05;27.13;;;16.80;;
4837;SDS011;2433;48.768;9.154;2023-02-24T03:14:34;31.87;;;18.87;;
4837;SDS011;2433;48.768;9.154;2023-02-24T03:17:08;28.50;;;17.90;;
4837;SDS011;2433;48.768;9.154;2023-02-24T03:19:40;27.83;;;17.03;;
4837;SDS011;2433;48.768;9.154;2023-02-24T03:24:43;30.07;;;18.87;;
4837;SDS011;2433;48.768;9.154;2023-02-24T03:27:18;35.63;;;18.57;;
4837;SDS011;2433;48.768;9.154;2023-02-24T03:30:05;23.93;;;16.80;;
4837;SDS011;2433;48.768;9.154;2023-02-24T03:32:36;32.50;;;18.30;;
4837;SDS011;2433;48.768;9.154;2023-02-24T03:35:20;26.40;;;16.10;;
4837;SDS011;2433;48.768;9.154;2023-02-24T03:37:56;27.73;;;16.40;;
4837;SDS011;2433;48.768;9.154;2023-02-24T03:40:24;28.27;;;17.00;;
4837;SDS011;2433;48.768;9.154;2023-02-24T03:43:09;29.13;;;18.63;;
4837;SDS011;2433;48.768;9.154;2023-02-24T03:45:47;30.40;;;18.00;;
4837;SDS011;2433;48.768;9.154;2023-02-24T03:48:13;23.63;;;17.40;;
4837;SDS011;2433;48.768;9.154;2023-02-24T03:50:39;26.50;;;17.40;;
4837;SDS011;2433;48.768;9.154;2023-02-24T03:59:39;27.50;;;16.60;;
4837;SDS011;2433;48.768;9.154;2023-02-24T04:01:57;30.60;;;17.10;;
4837;SDS011;2433;48.768;9.154;2023-02-24T04:05:10;28.83;;;17.90;;
4837;SDS011;2433;48.768;9.154;2023-02-24T04:07:59;26.33;;;14.30;;
4837;SDS011;2433;48.768;9.154;2023-02-24T04:12:59;34.37;;;18.87;;
4837;SDS011;2433;48.768;9.154;2023-02-24T04:15:42;30.47;;;17.87;;
4837;SDS011;2433;48.768;9.154;2023-02-24T04:18:13;33.77;;;21.43;;
4837;SDS011;2433;48.768;9.154;2023-02-24T04:20:42;31.23;;;17.87;;
4837;SDS011;2433;48.768;9.154;2023-02-24T04:23:11;31.10;;;20.57;;
4837;SDS011;2433;48.768;9.154;2023-02-24T04:25:40;36.87;;;19.83;;
4837;SDS011;2433;48.768;9.154;2023-02-24T04:28:08;32.37;;;19.83;;
4837;SDS011;2433;48.768;9.154;2023-02-24T04:30:37;34.67;;;21.23;;
4837;SDS011;2433;48.768;9.154;2023-02-24T04:33:08;33.87;;;19.73;;
4837;SDS011;2433;48.768;9.154;2023-02-24T04:35:34;35.53;;;21.10;;
4837;SDS011;2433;48.768;9.154;2023-02-24T04:38:00;41.63;;;21.67;;
4837;SDS011;2433;48.768;9.154;2023-02-24T04:40:27;37.30;;;20.57;;
4837;SDS011;2433;48.768;9.154;2023-02-24T04:42:52;34.60;;;19.10;;
4837;SDS011;2433;48.768;9.154;2023-02-24T04:45:19;38.17;;;20.50;;
4837;SDS011;2433;48.768;9.154;2023-02-24T04:47:47;41.50;;;21.17;;
4837;SDS011;2433;48.768;9.154;2023-02-24T04:50:18;32.83;;;17.90;;
4837;SDS011;2433;48.768;9.154;2023-02-24T04:52:52;36.73;;;20.40;;
4837;SDS011;2433;48.768;9.154;2023-02-24T04:55:19;40.47;;;23.43;;
4837;SDS011;2433;48.768;9.154;2023-02-24T04:57:55;39.27;;;21.50;;
4837;SDS011;2433;48.768;9.154;2023-02-24T05:00:21;35.47;;;20.80;;
4837;SDS011;2433;48.768;9.154;2023-02-24T05:02:51;39.87;;;20.57;;
4837;SDS011;2433;48.768;9.154;2023-02-24T05:05:19;48.50;;;23.20;;
4837;SDS011;2433;48.768;9.154;2023-02-24T05:07:55;42.87;;;21.80;;
4837;SDS011;2433;48.768;9.154;2023-02-24T05:10:27;35.97;;;20.33;;
4837;SDS011;2433;48.768;9.154;2023-02-24T05:12:55;44.00;;;20.70;;
4837;SDS011;2433;48.768;9.154;2023-02-24T05:15:25;35.77;;;19.70;;
4837;SDS011;2433;48.768;9.154;2023-02-24T05:18:03;37.10;;;20.97;;
4837;SDS011;2433;48.768;9.154;2023-02-24T05:20:35;35.63;;;20.20;;
4837;SDS011;2433;48.768;9.154;2023-02-24T05:23:25;40.03;;;22.10;;
4837;SDS011;2433;48.768;9.154;2023-02-24T05:25:51;41.13;;;21.73;;
4837;SDS011;2433;48.768;9.154;2023-02-24T05:28:20;35.43;;;19.07;;
4837;SDS011;2433;48.768;9.154;2023-02-24T05:30:48;38.77;;;22.33;;
4837;SDS011;2433;48.768;9.154;2023-02-24T05:33:15;35.33;;;20.00;;
4837;SDS011;2433;48.768;9.154;2023-02-24T05:35:49;40.93;;;19.63;;
4837;SDS011;2433;48.768;9.154;2023-02-24T05:38:15;36.07;;;20.40;;
4837;SDS011;2433;48.768;9.154;2023-02-24T05:40:45;49.27;;;23.30;;
4837;SDS011;2433;48.768;9.154;2023-02-24T05:43:12;34.93;;;20.20;;
4837;SDS011;2433;48.768;9.154;2023-02-24T05:45:44;41.73;;;21.47;;
4837;SDS011;2433;48.768;9.154;2023-02-24T05:48:10;37.30;;;20.77;;
4837;SDS011;2433;48.768;9.154;2023-02-24T05:50:39;45.17;;;22.77;;
4837;SDS011;2433;48.768;9.154;2023-02-24T05:53:06;45.83;;;22.20;;
4837;SDS011;2433;48.768;9.154;2023-02-24T05:55:33;35.53;;;20.80;;
4837;SDS011;2433;48.768;9.154;2023-02-24T05:58:00;43.00;;;22.77;;
4837;SDS011;2433;48.768;9.154;2023-02-24T06:00:30;40.10;;;20.87;;
4837;SDS011;2433;48.768;9.154;2023-02-24T06:02:56;48.50;;;21.40;;
4837;SDS011;2433;48.768;9.154;2023-02-24T06:05:32;41.43;;;20.20;;
4837;SDS011;2433;48.768;9.154;2023-02-24T06:07:59;37.17;;;20.67;;
4837;SDS011;2433;48.768;9.154;2023-02-24T06:10:36;41.63;;;20.30;;
4837;SDS011;2433;48.768;9.154;2023-02-24T06:13:04;35.60;;;20.30;;
4837;SDS011;2433;48.768;9.154;2023-02-24T06:15:31;34.00;;;19.37;;
4837;SDS011;2433;48.768;9.154;2023-02-24T06:17:58;38.47;;;19.23;;
4837;SDS011;2433;48.768;9.154;2023-02-24T06:20:25;41.17;;;19.40;;
4837;SDS011;2433;48.768;9.154;2023-02-24T06:22:53;36.70;;;20.30;;
4837;SDS011;2433;48.768;9.154;2023-02-24T06:25:22;37.67;;;19.47;;
4837;SDS011;2433;48.768;9.154;2023-02-24T06:27:51;42.63;;;20.10;;
4837;SDS011;2433;48.768;9.154;2023-02-24T06:30:19;41.43;;;22.03;;
4837;SDS011;2433;48.768;9.154;2023-02-24T06:32:48;38.33;;;21.23;;
4837;SDS011;2433;48.768;9.154;2023-02-24T06:35:16;42.40;;;22.60;;
4837;SDS011;2433;48.768;9.154;2023-02-24T06:37:42;41.00;;;23.77;;
4837;SDS011;2433;48.768;9.154;2023-02-24T06:40:08;41.27;;;22.60;;
4837;SDS011;2433;48.768;9.154;2023-02-24T06:42:45;42.60;;;20.83;;
4837;SDS011;2433;48.768;9.154;2023-02-24T06:45:12;44.77;;;22.83;;
4837;SDS011;2433;48.768;9.154;2023-02-24T06:47:39;47.17;;;22.97;;
4837;SDS011;2433;48.768;9.154;2023-02-24T06:50:07;43.07;;;22.80;;
4837;SDS011;2433;48.768;9.154;2023-02-24T06:52:36;44.00;;;21.13;;
4837;SDS011;2433;48.768;9.154;2023-02-24T06:55:02;44.97;;;23.77;;
4837;SDS011;2433;48.768;9.154;2023-02-24T06:57:31;47.93;;;26.60;;
4837;SDS011;2433;48.768;9.154;2023-02-24T06:59:59;44.77;;;22.87;;
4837;SDS011;2433;48.768;9.154;2023-02-24T07:02:44;41.90;;;22.20;;
4837;SDS011;2433;48.768;9.154;2023-02-24T07:05:10;46.53;;;21.67;;
4837;SDS011;2433;48.768;9.154;2023-02-24T07:07:39;42.53;;;23.37;;
4837;SDS011;2433;48.768;9.154;2023-02-24T07:10:13;48.83;;;24.33;;
4837;SDS011;2433;48.768;9.154;2023-02-24T07:12:39;46.90;;;21.03;;
4837;SDS011;2433;48.768;9.154;2023-02-24T07:15:06;47.77;;;21.77;;
4837;SDS011;2433;48.768;9.154;2023-02-24T07:17:33;53.20;;;22.27;;
4837;SDS011;2433;48.768;9.154;2023-02-24T07:19:58;44.37;;;22.40;;
4837;SDS011;2433;48.768;9.154;2023-02-24T07:22:35;49.77;;;22.40;;
4837;SDS011;2433;48.768;9.154;2023-02-24T07:25:00;45.00;;;22.07;;
4837;SDS011;2433;48.768;9.154;2023-02-24T07:27:26;43.80;;;23.20;;
4837;SDS011;2433;48.768;9.154;2023-02-24T07:29:51;48.60;;;22.17;;
4837;SDS011;2433;48.768;9.154;2023-02-24T07:32:18;44.33;;;21.57;;
4837;SDS011;2433;48.768;9.154;2023-02-24T07:34:46;40.30;;;19.87;;
4837;SDS011;2433;48.768;9.154;2023-02-24T07:37:12;42.73;;;23.00;;
4837;SDS011;2433;48.768;9.154;2023-02-24T07:39:38;44.20;;;21.43;;
4837;SDS011;2433;48.768;9.154;2023-02-24T07:42:04;38.07;;;19.73;;
4837;SDS011;2433;48.768;9.154;2023-02-24T07:44:41;39.43;;;20.13;;
4837;SDS011;2433;48.768;9.154;2023-02-24T07:47:08;40.23;;;20.50;;
4837;SDS011;2433;48.768;9.154;2023-02-24T07:49:34;37.07;;;19.77;;
4837;SDS011;2433;48.768;9.154;2023-02-24T07:52:00;50.17;;;23.20;;
4837;SDS011;2433;48.768;9.154;2023-02-24T07:54:26;42.93;;;22.20;;
4837;SDS011;2433;48.768;9.154;2023-02-24T07:56:54;48.03;;;21.43;;
4837;SDS011;2433;48.768;9.154;2023-02-24T07:59:31;38.50;;;19.33;;
4837;SDS011;2433;48.768;9.154;2023-02-24T08:02:01;41.83;;;21.30;;
4837;SDS011;2433;48.768;9.154;2023-02-24T08:04:29;42.27;;;20.27;;
4837;SDS011;2433;48.768;9.154;2023-02-24T08:06:57;41.20;;;19.63;;
4837;SDS011;2433;48.768;9.154;2023-02-24T08:09:27;42.60;;;20.57;;
4837;SDS011;2433;48.768;9.154;2023-02-24T08:12:18;38.00;;;18.97;;
4837;SDS011;2433;48.768;9.154;2023-02-24T08:14:47;30.83;;;17.80;;
4837;SDS011;2433;48.768;9.154;2023-02-24T08:17:17;39.10;;;17.97;;
4837;SDS011;2433;48.768;9.154;2023-02-24T08:19:45;35.23;;;20.70;;
4837;SDS011;2433;48.768;9.154;2023-02-24T08:22:12;40.77;;;22.67;;
4837;SDS011;2433;48.768;9.154;2023-02-24T08:24:49;35.30;;;19.70;;
4837;SDS011;2433;48.768;9.154;2023-02-24T08:27:17;36.90;;;20.20;;
4837;SDS011;2433;48.768;9.154;2023-02-24T08:29:53;32.57;;;17.53;;
4837;SDS011;2433;48.768;9.154;2023-02-24T08:32:35;34.47;;;16.40;;
4837;SDS011;2433;48.768;9.154;2023-02-24T08:35:06;35.57;;;19.30;;
4837;SDS011;2433;48.768;9.154;2023-02-24T08:37:40;33.40;;;17.20;;
4837;SDS011;2433;48.768;9.154;2023-02-24T08:40:14;31.67;;;17.37;;
4837;SDS011;2433;48.768;9.154;2023-02-24T08:42:56;29.00;;;16.80;;
4837;SDS011;2433;48.768;9.154;2023-02-24T08:48:25;34.07;;;17.73;;
4837;SDS011;2433;48.768;9.154;2023-02-24T08:51:03;26.07;;;17.30;;
4837;SDS011;2433;48.768;9.154;2023-02-24T08:53:29;35.07;;;15.97;;
4837;SDS011;2433;48.768;9.154;2023-02-24T08:56:00;32.00;;;16.80;;
4837;SDS011;2433;48.768;9.154;2023-02-24T08:58:37;32.80;;;16.53;;
4837;SDS011;2433;48.768;9.154;2023-02-24T09:01:06;24.80;;;14.40;;
4837;SDS011;2433;48.768;9.154;2023-02-24T09:03:46;19.50;;;12.00;;
4837;SDS011;2433;48.768;9.154;2023-02-24T09:06:15;23.80;;;11.70;;
4837;SDS011;2433;48.768;9.154;2023-02-24T09:08:50;23.47;;;12.30;;
4837;SDS011;2433;48.768;9.154;2023-02-24T09:11:38;20.10;;;11.87;;
4837;SDS011;2433;48.768;9.154;2023-02-24T09:14:09;20.80;;;11.13;;
4837;SDS011;2433;48.768;9.154;2023-02-24T09:16:44;20.10;;;11.73;;
4837;SDS011;2433;48.768;9.154;2023-02-24T09:19:40;15.27;;;9.10;;
4837;SDS011;2433;48.768;9.154;2023-02-24T09:22:11;20.87;;;10.10;;
4837;SDS011;2433;48.768;9.154;2023-02-24T09:24:54;17.07;;;10.00;;
4837;SDS011;2433;48.768;9.154;2023-02-24T09:27:40;18.27;;;10.00;;
4837;SDS011;2433;48.768;9.154;2023-02-24T09:30:09;15.43;;;9.10;;
4837;SDS011;2433;48.768;9.154;2023-02-24T09:32:55;16.37;;;9.87;;
4837;SDS011;2433;48.768;9.154;2023-02-24T09:35:26;16.33;;;10.20;;
4837;SDS011;2433;48.768;9.154;2023-02-24T09:37:56;14.83;;;9.07;;
4837;SDS011;2433;48.768;9.154;2023-02-24T09:40:26;20.57;;;8.03;;
4837;SDS011;2433;48.768;9.154;2023-02-24T09:43:20;14.40;;;7.60;;
4837;SDS011;2433;48.768;9.154;2023-02-24T09:45:51;14.07;;;7.77;;
4837;SDS011;2433;48.768;9.154;2023-02-24T09:48:41;23.57;;;9.70;;
4837;SDS011;2433;48.768;9.154;2023-02-24T09:51:30;13.93;;;8.80;;
4837;SDS011;2433;48.768;9.154;2023-02-24T09:54:16;28.83;;;12.50;;
4837;SDS011;2433;48.768;9.154;2023-02-24T09:56:49;20.70;;;12.93;;
4837;SDS011;2433;48.768;9.154;2023-02-24T10:07:37;14.97;;;8.43;;
4837;SDS011;2433;48.768;9.154;2023-02-24T10:10:07;15.73;;;9.33;;
4837;SDS011;2433;48.768;9.154;2023-02-24T10:13:35;14.03;;;9.40;;
4837;SDS011;2433;48.768;9.154;2023-02-24T10:15:54;18.30;;;8.70;;
4837;SDS011;2433;48.768;9.154;2023-02-24T10:18:38;9.00;;;5.90;;
4837;SDS011;2433;48.768;9.154;2023-02-24T10:27:05;20.10;;;12.13;;
4837;SDS011;2433;48.768;9.154;2023-02-24T10:32:40;18.97;;;12.33;;
4837;SDS011;2433;48.768;9.154;2023-02-24T10:35:12;18.90;;;10.70;;
4837;SDS011;2433;48.768;9.154;2023-02-24T10:37:41;16.83;;;9.20;;
4837;SDS011;2433;48.768;9.154;2023-02-24T10:40:08;19.17;;;9.70;;
4837;SDS011;2433;48.768;9.154;2023-02-24T10:42:35;19.73;;;11.03;;
4837;SDS011;2433;48.768;9.154;2023-02-24T10:45:13;16.80;;;10.27;;
4837;SDS011;2433;48.768;9.154;2023-02-24T10:47:43;18.67;;;10.13;;
4837;SDS011;2433;48.768;9.154;2023-02-24T10:52:51;16.40;;;8.53;;
4837;SDS011;2433;48.768;9.154;2023-02-24T10:55:41;21.67;;;10.70;;
4837;SDS011;2433;48.768;9.154;2023-02-24T10:58:21;20.47;;;9.63;;
4837;SDS011;2433;48.768;9.154;2023-02-24T11:00:53;25.23;;;10.67;;
4837;SDS011;2433;48.768;9.154;2023-02-24T11:03:20;23.07;;;12.47;;
4837;SDS011;2433;48.768;9.154;2023-02-24T11:06:05;19.77;;;11.33;;
4837;SDS011;2433;48.768;9.154;2023-02-24T11:08:58;33.43;;;14.40;;
4837;SDS011;2433;48.768;9.154;2023-02-24T11:11:44;28.90;;;13.20;;
4837;SDS011;2433;48.768;9.154;2023-02-24T11:14:30;27.90;;;12.90;;
4837;SDS011;2433;48.768;9.154;2023-02-24T11:17:24;34.77;;;14.27;;
4837;SDS011;2433;48.768;9.154;2023-02-24T11:19:56;43.13;;;15.33;;
4837;SDS011;2433;48.768;9.154;2023-02-24T11:22:26;30.13;;;15.80;;
4837;SDS011;2433;48.768;9.154;2023-02-24T11:24:58;33.57;;;15.97;;
4837;SDS011;2433;48.768;9.154;2023-02-24T11:27:28;28.90;;;15.00;;
4837;SDS011;2433;48.768;9.154;2023-02-24T11:30:12;29.73;;;14.60;;
4837;SDS011;2433;48.768;9.154;2023-02-24T11:41:08;22.53;;;11.70;;
4837;SDS011;2433;48.768;9.154;2023-02-24T11:43:39;28.43;;;12.17;;
4837;SDS011;2433;48.768;9.154;2023-02-24T11:46:11;28.23;;;12.47;;
4837;SDS011;2433;48.768;9.154;2023-02-24T11:48:44;24.80;;;10.93;;
4837;SDS011;2433;48.768;9.154;2023-02-24T11:51:19;18.60;;;10.60;;
4837;SDS011;2433;48.768;9.154;2023-02-24T11:53:55;22.47;;;10.63;;
4837;SDS011;2433;48.768;9.154;2023-02-24T11:56:27;20.90;;;10.93;;
4837;SDS011;2433;48.768;9.154;2023-02-24T12:06:47;23.37;;;12.73;;
4837;SDS011;2433;48.768;9.154;2023-02-24T12:09:18;24.13;;;9.97;;
4837;SDS011;2433;48.768;9.154;2023-02-24T12:11:55;27.63;;;12.87;;
4837;SDS011;2433;48.768;9.154;2023-02-24T12:17:25;22.60;;;10.10;;
4837;SDS011;2433;48.768;9.154;2023-02-24T12:20:20;17.63;;;8.43;;
4837;SDS011;2433;48.768;9.154;2023-02-24T12:22:56;21.30;;;11.07;;
4837;SDS011;2433;48.768;9.154;2023-02-24T12:25:24;15.50;;;8.57;;
4837;SDS011;2433;48.768;9.154;2023-02-24T12:30:28;11.90;;;7.20;;
4837;SDS011;2433;48.768;9.154;2023-02-24T12:33:26;15.80;;;8.40;;
4837;SDS011;2433;48.768;9.154;2023-02-24T12:41:18;14.77;;;7.93;;
4837;SDS011;2433;48.768;9.154;2023-02-24T12:43:53;12.77;;;6.70;;
4837;SDS011;2433;48.768;9.154;2023-02-24T12:46:28;12.97;;;6.83;;
4837;SDS011;2433;48.768;9.154;2023-02-24T12:49:00;20.23;;;7.60;;
4837;SDS011;2433;48.768;9.154;2023-02-24T12:54:31;13.97;;;6.53;;
4837;SDS011;2433;48.768;9.154;2023-02-24T12:57:10;12.90;;;6.53;;
4837;SDS011;2433;48.768;9.154;2023-02-24T12:59:48;9.47;;;4.60;;
4837;SDS011;2433;48.768;9.154;2023-02-24T13:10:25;15.17;;;5.33;;
4837;SDS011;2433;48.768;9.154;2023-02-24T13:13:15;10.97;;;4.83;;
4837;SDS011;2433;48.768;9.154;2023-02-24T13:15:53;9.20;;;4.17;;
4837;SDS011;2433;48.768;9.154;2023-02-24T13:18:30;5.73;;;4.50;;
4837;SDS011;2433;48.768;9.154;2023-02-24T13:21:08;13.53;;;5.63;;
4837;SDS011;2433;48.768;9.154;2023-02-24T13:23:52;16.90;;;6.87;;
4837;SDS011;2433;48.768;9.154;2023-02-24T13:26:23;12.10;;;5.57;;
4837;SDS011;2433;48.768;9.154;2023-02-24T13:29:07;12.33;;;5.60;;
4837;SDS011;2433;48.768;9.154;2023-02-24T13:31:42;12.23;;;5.53;;
4837;SDS011;2433;48.768;9.154;2023-02-24T13:34:29;10.27;;;6.27;;
4837;SDS011;2433;48.768;9.154;2023-02-24T13:36:57;14.20;;;6.17;;
4837;SDS011;2433;48.768;9.154;2023-02-24T13:39:24;12.63;;;5.90;;
4837;SDS011;2433;48.768;9.154;2023-02-24T13:45:19;19.57;;;6.47;;
4837;SDS011;2433;48.768;9.154;2023-02-24T13:47:58;11.70;;;5.70;;
4837;SDS011;2433;48.768;9.154;2023-02-24T13:50:37;14.43;;;5.93;;
4837;SDS011;2433;48.768;9.154;2023-02-24T14:02:00;12.27;;;6.50;;
4837;SDS011;2433;48.768;9.154;2023-02-24T14:04:32;11.07;;;5.57;;
4837;SDS011;2433;48.768;9.154;2023-02-24T14:07:00;26.47;;;7.23;;
4837;SDS011;2433;48.768;9.154;2023-02-24T14:09:30;20.53;;;7.20;;
4837;SDS011;2433;48.768;9.154;2023-02-24T14:12:02;9.07;;;5.70;;
4837;SDS011;2433;48.768;9.154;2023-02-24T14:14:31;10.07;;;4.90;;
4837;SDS011;2433;48.768;9.154;2023-02-24T14:16:56;12.43;;;5.23;;
4837;SDS011;2433;48.768;9.154;2023-02-24T14:19:23;9.57;;;6.50;;
4837;SDS011;2433;48.768;9.154;2023-02-24T14:21:50;12.60;;;8.23;;
4837;SDS011;2433;48.768;9.154;2023-02-24T14:24:20;18.00;;;8.90;;
4837;SDS011;2433;48.768;9.154;2023-02-24T14:26:48;19.97;;;10.57;;
4837;SDS011;2433;48.768;9.154;2023-02-24T14:29:19;17.27;;;9.40;;
4837;SDS011;2433;48.768;9.154;2023-02-24T14:31:51;15.40;;;9.53;;
4837;SDS011;2433;48.768;9.154;2023-02-24T14:34:22;16.93;;;8.23;;
4837;SDS011;2433;48.768;9.154;2023-02-24T14:36:53;20.60;;;9.47;;
4837;SDS011;2433;48.768;9.154;2023-02-24T14:39:21;18.63;;;8.27;;
4837;SDS011;2433;48.768;9.154;2023-02-24T14:41:49;20.73;;;9.30;;
4837;SDS011;2433;48.768;9.154;2023-02-24T14:46:47;14.73;;;7.23;;
4837;SDS011;2433;48.768;9.154;2023-02-24T14:49:50;15.13;;;7.23;;
4837;SDS011;2433;48.768;9.154;2023-02-24T14:54:41;17.13;;;6.27;;
4837;SDS011;2433;48.768;9.154;2023-02-24T15:00:22;11.03;;;5.80;;
4837;SDS011;2433;48.768;9.154;2023-02-24T15:02:59;16.73;;;6.20;;
4837;SDS011;2433;48.768;9.154;2023-02-24T15:05:29;12.87;;;5.90;;
4837;SDS011;2433;48.768;9.154;2023-02-24T15:07:55;14.57;;;6.57;;
4837;SDS011;2433;48.768;9.154;2023-02-24T15:10:23;11.40;;;6.37;;
4837;SDS011;2433;48.768;9.154;2023-02-24T15:12:52;19.27;;;6.30;;
4837;SDS011;2433;48.768;9.154;2023-02-24T15:15:26;16.07;;;6.90;;
4837;SDS011;2433;48.768;9.154;2023-02-24T15:17:54;12.00;;;5.50;;
4837;SDS011;2433;48.768;9.154;2023-02-24T15:20:35;9.00;;;5.13;;
4837;SDS011;2433;48.768;9.154;2023-02-24T15:23:02;12.07;;;6.30;;
4837;SDS011;2433;48.768;9.154;2023-02-24T15:25:29;15.53;;;6.63;;
4837;SDS011;2433;48.768;9.154;2023-02-24T15:28:06;13.90;;;7.20;;
4837;SDS011;2433;48.768;9.154;2023-02-24T15:30:33;9.20;;;5.13;;
4837;SDS011;2433;48.768;9.154;2023-02-24T15:35:31;14.67;;;6.17;;
4837;SDS011;2433;48.768;9.154;2023-02-24T15:37:59;12.20;;;5.90;;
4837;SDS011;2433;48.768;9.154;2023-02-24T15:40:25;8.80;;;5.97;;
4837;SDS011;2433;48.768;9.154;2023-02-24T15:42:56;15.23;;;6.50;;
4837;SDS011;2433;48.768;9.154;2023-02-24T15:47:55;10.57;;;5.90;;
4837;SDS011;2433;48.768;9.154;2023-02-24T15:50:22;14.73;;;5.80;;
4837;SDS011;2433;48.768;9.154;2023-02-24T15:52:48;12.10;;;5.70;;
4837;SDS011;2433;48.768;9.154;2023-02-24T15:55:14;11.63;;;6.20;;
4837;SDS011;2433;48.768;9.154;2023-02-24T15:57:40;10.00;;;6.10;;
4837;SDS011;2433;48.768;9.154;2023-02-24T16:00:07;12.47;;;5.57;;
4837;SDS011;2433;48.768;9.154;2023-02-24T16:02:38;18.83;;;5.50;;
4837;SDS011;2433;48.768;9.154;2023-02-24T16:05:05;8.77;;;5.47;;
4837;SDS011;2433;48.768;9.154;2023-02-24T16:07:32;10.97;;;5.97;;
4837;SDS011;2433;48.768;9.154;2023-02-24T16:09:59;10.80;;;5.27;;
4837;SDS011;2433;48.768;9.154;2023-02-24T16:12:28;8.33;;;5.20;;
4837;SDS011;2433;48.768;9.154;2023-02-24T16:15:09;18.87;;;8.00;;
4837;SDS011;2433;48.768;9.154;2023-02-24T16:17:42;13.47;;;7.30;;
4837;SDS011;2433;48.768;9.154;2023-02-24T16:22:40;15.47;;;8.20;;
4837;SDS011;2433;48.768;9.154;2023-02-24T16:25:06;8.90;;;6.40;;
4837;SDS011;2433;48.768;9.154;2023-02-24T16:27:32;12.63;;;7.20;;
4837;SDS011;2433;48.768;9.154;2023-02-24T16:29:58;10.83;;;7.90;;
4837;SDS011;2433;48.768;9.154;2023-02-24T16:32:24;20.30;;;8.13;;
4837;SDS011;2433;48.768;9.154;2023-02-24T16:34:53;15.37;;;8.27;;
4837;SDS011;2433;48.768;9.154;2023-02-24T16:37:26;15.30;;;8.50;;
4837;SDS011;2433;48.768;9.154;2023-02-24T16:39:52;19.20;;;8.20;;
4837;SDS011;2433;48.768;9.154;2023-02-24T16:42:19;14.40;;;7.50;;
4837;SDS011;2433;48.768;9.154;2023-02-24T16:44:46;14.37;;;8.47;;
4837;SDS011;2433;48.768;9.154;2023-02-24T16:47:13;15.93;;;8.57;;
4837;SDS011;2433;48.768;9.154;2023-02-24T16:49:44;12.83;;;8.40;;
4837;SDS011;2433;48.768;9.154;2023-02-24T16:52:11;16.90;;;8.87;;
4837;SDS011;2433;48.768;9.154;2023-02-24T16:54:37;16.63;;;8.23;;
4837;SDS011;2433;48.768;9.154;2023-02-24T16:57:02;14.87;;;9.30;;
4837;SDS011;2433;48.768;9.154;2023-02-24T16:59:28;25.27;;;10.03;;
4837;SDS011;2433;48.768;9.154;2023-02-24T17:01:54;15.73;;;9.93;;
4837;SDS011;2433;48.768;9.154;2023-02-24T17:04:20;17.67;;;8.50;;
4837;SDS011;2433;48.768;9.154;2023-02-24T17:06:46;13.70;;;9.10;;
4837;SDS011;2433;48.768;9.154;2023-02-24T17:09:12;14.63;;;9.47;;
4837;SDS011;2433;48.768;9.154;2023-02-24T17:11:40;14.13;;;7.87;;
4837;SDS011;2433;48.768;9.154;2023-02-24T17:14:10;13.13;;;8.47;;
4837;SDS011;2433;48.768;9.154;2023-02-24T17:16:39;12.67;;;10.03;;
4837;SDS011;2433;48.768;9.154;2023-02-24T17:19:06;15.40;;;7.90;;
4837;SDS011;2433;48.768;9.154;2023-02-24T17:21:32;14.90;;;7.07;;
4837;SDS011;2433;48.768;9.154;2023-02-24T17:23:57;21.27;;;8.80;;